Time;durP1;ratioP1;P1;durP2;ratioP2;P2;SDS_P1;SDS_P2;PMS_P1;PMS_P2;Temp;Humidity;BMP_temperature;BMP_pressure;BME280_temperature;BME280_humidity;BME280_pressure;Samples;Min_cycle;Max_cycle;Signal;HPM_P1;HPM_P2
2022/11/16 00:01:41;;;;;;;72.38;51.20;;;9.00;99.90;;;;;;5052177;28;20201;-82
2022/11/16 00:04:20;;;;;;;70.28;46.83;;;9.10;99.90;;;;;;5037453;28;20199;-81
2022/11/16 00:06:48;;;;;;;80.15;49.20;;;9.20;99.90;;;;;;5045427;28;20282;-80
2022/11/16 00:09:22;;;;;;;77.05;48.00;;;9.30;99.90;;;;;;5046086;28;20208;-82
2022/11/16 00:11:55;;;;;;;71.15;47.80;;;9.20;99.90;;;;;;5038119;28;20610;-82
2022/11/16 00:14:25;;;;;;;76.53;51.55;;;9.30;99.90;;;;;;5042691;28;20209;-82
2022/11/16 00:16:54;;;;;;;66.82;48.35;;;9.20;99.90;;;;;;5042705;28;20300;-82
2022/11/16 00:19:23;;;;;;;75.65;51.53;;;9.40;99.90;;;;;;5048953;28;20236;-83
2022/11/16 00:21:54;;;;;;;81.35;56.13;;;9.40;99.90;;;;;;5044574;28;20281;-82
2022/11/16 00:24:50;;;;;;;75.15;52.70;;;9.20;99.90;;;;;;5060137;28;20196;-82
2022/11/16 00:27:30;;;;;;;84.15;56.95;;;9.30;99.90;;;;;;5050497;28;20259;-82
2022/11/16 00:30:02;;;;;;;73.55;52.00;;;9.40;99.90;;;;;;5044454;28;20504;-82
2022/11/16 00:32:50;;;;;;;74.30;50.42;;;9.20;99.90;;;;;;5039241;28;20273;-81
2022/11/16 00:35:38;;;;;;;68.40;49.53;;;9.40;99.90;;;;;;5043719;28;20228;-81
2022/11/16 00:38:06;;;;;;;83.47;53.13;;;9.50;99.90;;;;;;5043730;28;20209;-82
2022/11/16 00:40:34;;;;;;;73.57;49.70;;;9.30;99.90;;;;;;5039381;28;20221;-82
2022/11/16 00:43:01;;;;;;;86.55;53.38;;;9.20;99.90;;;;;;5057654;28;20675;-81
2022/11/16 00:45:30;;;;;;;85.35;53.30;;;9.30;99.90;;;;;;5041188;28;20201;-81
2022/11/16 00:47:59;;;;;;;77.18;50.92;;;9.40;99.90;;;;;;5042771;28;20284;-82
2022/11/16 00:50:34;;;;;;;76.88;53.97;;;9.40;99.90;;;;;;5042074;28;20228;-82
2022/11/16 00:53:05;;;;;;;74.65;52.28;;;8.80;99.90;;;;;;5041204;28;20205;-82
2022/11/16 00:55:33;;;;;;;83.35;54.05;;;8.80;99.90;;;;;;5041558;28;20197;-82
2022/11/16 00:58:00;;;;;;;72.45;53.35;;;8.50;99.90;;;;;;5041476;28;20267;-84
2022/11/16 01:00:27;;;;;;;93.22;56.33;;;8.40;99.90;;;;;;5038089;28;20247;-83
2022/11/16 01:02:56;;;;;;;81.80;57.05;;;8.20;99.90;;;;;;5039749;28;20436;-83
2022/11/16 01:05:23;;;;;;;83.70;57.65;;;8.00;99.90;;;;;;5040087;28;20208;-84
2022/11/16 01:07:52;;;;;;;87.40;56.78;;;8.00;99.90;;;;;;5041152;28;20228;-83
2022/11/16 01:10:21;;;;;;;97.25;60.20;;;8.00;99.90;;;;;;5038460;28;20323;-83
2022/11/16 01:12:53;;;;;;;88.25;57.22;;;8.00;99.90;;;;;;5035404;28;20213;-82
2022/11/16 01:15:29;;;;;;;93.85;61.35;;;8.00;99.90;;;;;;5052542;28;20264;-83
2022/11/16 01:18:03;;;;;;;111.13;64.47;;;8.00;99.90;;;;;;5035481;28;20209;-83
2022/11/16 01:20:30;;;;;;;96.70;60.10;;;8.00;99.90;;;;;;5039529;28;20200;-83
2022/11/16 01:22:58;;;;;;;97.32;59.13;;;8.00;99.90;;;;;;5039862;28;20270;-84
2022/11/16 01:25:27;;;;;;;86.93;59.67;;;8.10;99.90;;;;;;5031645;28;20214;-84
2022/11/16 01:27:56;;;;;;;83.53;55.88;;;8.00;99.90;;;;;;5040332;28;20278;-83
2022/11/16 01:30:23;;;;;;;83.32;58.30;;;8.20;99.90;;;;;;5041268;28;20769;-84
2022/11/16 01:32:51;;;;;;;82.30;57.63;;;8.30;99.90;;;;;;5040566;28;20204;-82
2022/11/16 01:35:22;;;;;;;92.57;60.15;;;8.30;99.90;;;;;;5036200;28;20252;-84
2022/11/16 01:37:50;;;;;;;95.13;63.00;;;8.00;99.90;;;;;;5032798;28;20204;-84
2022/11/16 01:40:18;;;;;;;98.72;64.95;;;8.00;99.90;;;;;;5038710;28;20497;-84
2022/11/16 01:42:48;;;;;;;95.18;59.22;;;8.00;99.90;;;;;;5030454;28;20209;-82
2022/11/16 01:45:33;;;;;;;98.25;62.35;;;8.10;99.90;;;;;;5035395;28;20225;-82
2022/11/16 01:48:00;;;;;;;94.80;60.10;;;8.00;99.90;;;;;;5034316;28;20282;-85
2022/11/16 01:50:29;;;;;;;81.00;55.20;;;8.00;99.90;;;;;;5037472;28;20217;-83
2022/11/16 01:53:00;;;;;;;81.35;54.80;;;7.80;99.90;;;;;;5050217;28;20209;-82
2022/11/16 01:55:31;;;;;;;75.35;52.85;;;7.90;99.90;;;;;;5030985;28;20198;-82
2022/11/16 01:57:59;;;;;;;84.13;58.10;;;7.90;99.90;;;;;;5036954;28;20216;-83
2022/11/16 02:00:26;;;;;;;96.93;58.10;;;7.80;99.90;;;;;;5042507;28;20207;-82
2022/11/16 02:02:56;;;;;;;80.22;56.30;;;7.80;99.90;;;;;;5040556;28;20250;-82
2022/11/16 02:05:33;;;;;;;92.38;59.85;;;7.80;99.90;;;;;;5033162;28;20287;-82
2022/11/16 02:11:31;;;;;;;87.28;58.60;;;7.70;99.90;;;;;;5034467;28;20592;-83
2022/11/16 02:14:01;;;;;;;82.97;55.22;;;7.80;99.90;;;;;;5031622;28;20202;-84
2022/11/16 02:16:48;;;;;;;89.45;57.35;;;7.90;99.90;;;;;;5041064;28;20214;-83
2022/11/16 02:19:36;;;;;;;87.20;54.25;;;7.90;99.90;;;;;;5040513;28;20276;-84
2022/11/16 02:22:40;;;;;;;80.30;57.75;;;7.80;99.90;;;;;;5034759;28;20201;-83
2022/11/16 02:25:22;;;;;;;83.30;55.45;;;7.80;99.90;;;;;;5035405;28;20250;-83
2022/11/16 02:28:17;;;;;;;80.18;57.95;;;7.70;99.90;;;;;;5041110;28;20262;-83
2022/11/16 02:30:49;;;;;;;86.85;58.63;;;7.70;99.90;;;;;;5050889;28;20204;-83
2022/11/16 02:33:20;;;;;;;75.00;54.22;;;7.80;99.90;;;;;;5038990;28;20217;-82
2022/11/16 02:35:52;;;;;;;80.65;52.60;;;7.80;99.90;;;;;;5040908;28;20255;-82
2022/11/16 02:38:25;;;;;;;71.10;49.92;;;8.00;99.90;;;;;;5039255;28;20205;-81
2022/11/16 02:41:02;;;;;;;77.75;53.25;;;8.00;99.90;;;;;;5038865;28;20217;-82
2022/11/16 02:43:35;;;;;;;76.93;53.47;;;8.00;99.90;;;;;;5045098;28;20205;-82
2022/11/16 02:46:08;;;;;;;75.22;53.65;;;8.00;99.90;;;;;;5040685;28;20200;-83
2022/11/16 02:48:40;;;;;;;74.10;56.60;;;8.00;99.90;;;;;;5039648;28;20254;-83
2022/11/16 02:51:08;;;;;;;85.28;51.35;;;8.00;99.90;;;;;;5040826;28;20189;-83
2022/11/16 02:54:01;;;;;;;79.72;52.60;;;8.20;99.90;;;;;;5049079;28;20220;-81
2022/11/16 02:56:29;;;;;;;68.30;48.55;;;8.10;99.90;;;;;;5042189;28;20208;-82
2022/11/16 02:58:58;;;;;;;72.93;51.33;;;8.20;99.90;;;;;;5062754;28;20216;-82
2022/11/16 03:01:33;;;;;;;70.32;51.33;;;8.20;99.90;;;;;;5041032;28;20247;-83
2022/11/16 03:04:09;;;;;;;80.75;52.05;;;8.20;99.90;;;;;;5042719;28;20201;-83
2022/11/16 03:06:38;;;;;;;81.43;53.47;;;7.80;99.90;;;;;;5041653;28;20221;-83
2022/11/16 03:09:14;;;;;;;74.68;50.30;;;7.80;99.90;;;;;;5051677;28;20204;-83
2022/11/16 03:12:01;;;;;;;70.03;50.00;;;7.70;99.90;;;;;;5040637;28;20247;-83
2022/11/16 03:14:46;;;;;;;74.70;49.08;;;7.60;99.90;;;;;;5040196;28;20259;-84
2022/11/16 03:17:28;;;;;;;76.47;53.42;;;7.40;99.90;;;;;;5035334;28;20423;-83
2022/11/16 03:20:03;;;;;;;79.65;54.28;;;7.40;99.90;;;;;;5050523;28;20208;-83
2022/11/16 03:22:54;;;;;;;77.63;55.50;;;7.40;99.90;;;;;;5054819;28;20381;-84
2022/11/16 03:25:25;;;;;;;86.53;56.08;;;7.30;99.90;;;;;;5043483;28;20211;-85
2022/11/16 03:28:02;;;;;;;69.53;52.88;;;7.20;99.90;;;;;;5037253;28;20220;-84
2022/11/16 03:30:35;;;;;;;86.75;57.08;;;7.10;99.90;;;;;;5043228;28;20212;-84
2022/11/16 03:33:29;;;;;;;85.28;56.10;;;7.00;99.90;;;;;;5058480;28;20208;-84
2022/11/16 03:36:06;;;;;;;81.93;54.58;;;7.10;99.90;;;;;;5036624;28;20266;-83
2022/11/16 03:38:36;;;;;;;96.32;56.47;;;7.00;99.90;;;;;;5042422;28;20205;-86
2022/11/16 03:41:08;;;;;;;88.00;55.40;;;6.90;99.90;;;;;;5043858;28;20250;-83
2022/11/16 03:43:37;;;;;;;88.75;55.67;;;6.60;99.90;;;;;;5042641;28;20435;-82
2022/11/16 03:46:05;;;;;;;86.97;52.63;;;6.50;99.90;;;;;;5044179;28;20197;-81
2022/11/16 03:48:36;;;;;;;86.82;52.65;;;6.40;99.90;;;;;;5043998;28;20221;-84
2022/11/16 03:51:05;;;;;;;78.93;51.30;;;6.40;99.90;;;;;;5045556;28;20256;-84
2022/11/16 03:53:32;;;;;;;90.55;55.20;;;6.30;99.90;;;;;;5048244;28;20212;-85
2022/11/16 03:55:59;;;;;;;90.78;55.22;;;6.40;99.90;;;;;;5046204;28;20259;-84
2022/11/16 03:58:26;;;;;;;83.88;49.92;;;6.30;99.90;;;;;;5050860;28;20485;-84
2022/11/16 04:00:53;;;;;;;84.07;52.42;;;6.20;99.90;;;;;;5050786;28;20221;-85
2022/11/16 04:03:21;;;;;;;82.50;52.25;;;6.20;99.90;;;;;;5048653;28;20205;-85
2022/11/16 04:25:33;;;;;;;72.00;46.17;;;6.00;99.90;;;;;;5043673;28;20201;-83
2022/11/16 04:28:15;;;;;;;73.75;47.22;;;5.80;99.90;;;;;;5051859;28;20225;-83
2022/11/16 04:39:10;;;;;;;76.28;45.72;;;5.90;99.90;;;;;;5043788;28;20234;-84
2022/11/16 04:44:23;;;;;;;64.65;42.88;;;6.00;99.90;;;;;;5038715;28;20420;-84
2022/11/16 04:47:07;;;;;;;71.43;44.17;;;6.00;99.90;;;;;;5041418;28;20213;-87
2022/11/16 04:49:34;;;;;;;72.10;42.30;;;6.00;99.90;;;;;;5038868;28;20201;-83
2022/11/16 04:52:01;;;;;;;63.33;37.08;;;6.00;99.90;;;;;;5056661;28;20213;-86
2022/11/16 04:54:28;;;;;;;74.35;43.05;;;6.00;99.90;;;;;;5039042;28;20436;-84
2022/11/16 04:56:55;;;;;;;69.70;38.10;;;5.90;99.90;;;;;;5042465;28;20255;-85
2022/11/16 04:59:21;;;;;;;71.65;41.97;;;5.90;99.90;;;;;;5057638;28;20255;-84
2022/11/16 05:02:07;;;;;;;73.32;43.55;;;5.90;99.90;;;;;;5049456;28;20208;-84
2022/11/16 05:04:42;;;;;;;63.25;41.47;;;5.90;99.90;;;;;;5042612;28;20471;-84
2022/11/16 05:07:10;;;;;;;64.80;39.92;;;5.80;99.90;;;;;;5041579;28;20217;-82
2022/11/16 05:09:41;;;;;;;73.25;44.53;;;5.90;99.90;;;;;;5041268;28;20213;-80
2022/11/16 05:12:14;;;;;;;55.67;36.53;;;5.90;99.90;;;;;;5043107;28;20208;-80
2022/11/16 05:14:42;;;;;;;59.75;37.85;;;6.00;99.90;;;;;;5040044;28;20221;-81
2022/11/16 05:17:09;;;;;;;57.20;33.78;;;5.90;99.90;;;;;;5041629;28;20484;-80
2022/11/16 05:22:23;;;;;;;54.00;38.20;;;5.80;99.90;;;;;;5036496;28;20189;-80
2022/11/16 05:24:50;;;;;;;57.75;39.17;;;5.70;99.90;;;;;;5040071;28;20500;-86
2022/11/16 05:27:20;;;;;;;58.53;39.42;;;5.70;99.90;;;;;;5049006;28;20224;-80
2022/11/16 05:29:48;;;;;;;54.38;35.22;;;5.80;99.90;;;;;;5044390;28;20428;-83
2022/11/16 05:32:17;;;;;;;50.72;32.75;;;5.80;99.90;;;;;;5044570;28;20201;-84
2022/11/16 05:34:44;;;;;;;63.97;35.00;;;5.80;99.90;;;;;;5042434;28;20251;-81
2022/11/16 05:37:16;;;;;;;58.20;36.38;;;5.80;99.90;;;;;;5031325;28;20425;-83
2022/11/16 05:39:43;;;;;;;51.58;33.83;;;5.80;99.90;;;;;;5044791;28;20209;-85
2022/11/16 05:42:10;;;;;;;54.33;36.20;;;5.80;99.90;;;;;;5042692;28;20225;-82
2022/11/16 05:44:37;;;;;;;59.08;35.20;;;5.80;99.90;;;;;;5059070;28;20228;-84
2022/11/16 05:47:04;;;;;;;50.45;32.45;;;5.70;99.90;;;;;;5037562;28;20213;-86
2022/11/16 05:49:31;;;;;;;62.55;34.50;;;5.80;99.90;;;;;;5044471;28;20243;-83
2022/11/16 05:52:00;;;;;;;55.63;32.08;;;5.80;99.90;;;;;;5042980;28;20254;-84
2022/11/16 05:54:27;;;;;;;62.85;38.65;;;5.80;99.90;;;;;;5043409;28;20201;-81
2022/11/16 05:56:54;;;;;;;62.10;36.65;;;5.80;99.90;;;;;;5047446;28;20217;-86
2022/11/16 05:59:21;;;;;;;55.58;32.35;;;5.80;99.90;;;;;;5046663;28;20212;-86
2022/11/16 06:01:49;;;;;;;65.70;38.08;;;5.70;99.90;;;;;;5047804;28;20706;-88
2022/11/16 06:04:17;;;;;;;68.97;36.65;;;5.80;99.90;;;;;;5009549;28;20216;-85
2022/11/16 06:06:50;;;;;;;66.70;37.15;;;5.80;99.90;;;;;;5047814;28;20560;-84
2022/11/16 06:09:18;;;;;;;67.85;38.08;;;5.70;99.90;;;;;;5054617;28;20223;-86
2022/11/16 06:11:44;;;;;;;72.07;38.40;;;5.70;99.90;;;;;;5037671;28;20203;-85
2022/11/16 06:14:12;;;;;;;76.43;41.58;;;5.60;99.90;;;;;;5042454;28;20389;-85
2022/11/16 06:16:39;;;;;;;57.47;34.10;;;5.80;99.90;;;;;;5054712;28;20261;-86
2022/11/16 06:19:06;;;;;;;62.28;36.58;;;5.90;99.90;;;;;;5044207;28;20493;-84
2022/11/16 06:21:33;;;;;;;65.57;37.25;;;6.10;99.90;;;;;;5040379;28;20266;-84
2022/11/16 06:24:01;;;;;;;69.20;36.50;;;6.00;99.90;;;;;;5054532;28;20231;-85
2022/11/16 06:26:28;;;;;;;70.57;38.75;;;6.10;99.90;;;;;;5039437;28;20377;-84
2022/11/16 06:28:55;;;;;;;64.28;37.45;;;6.00;99.90;;;;;;5038209;28;20240;-84
2022/11/16 06:31:22;;;;;;;75.13;37.28;;;6.00;99.90;;;;;;5048632;28;20185;-87
2022/11/16 06:33:49;;;;;;;62.70;37.17;;;6.10;99.90;;;;;;5052591;28;20950;-85
2022/11/16 06:36:16;;;;;;;72.55;37.67;;;6.10;99.90;;;;;;5041308;28;20280;-84
2022/11/16 06:38:42;;;;;;;52.10;32.55;;;6.00;99.90;;;;;;5053546;28;20212;-83
2022/11/16 06:41:10;;;;;;;64.70;33.17;;;6.00;99.90;;;;;;5038397;28;20205;-84
2022/11/16 06:43:36;;;;;;;66.43;37.00;;;6.00;99.90;;;;;;5039052;28;20213;-83
2022/11/16 06:46:04;;;;;;;77.28;35.75;;;6.10;99.90;;;;;;5047571;28;20209;-85
2022/11/16 06:48:32;;;;;;;63.35;31.92;;;6.10;99.90;;;;;;5037592;28;20255;-84
2022/11/16 06:51:00;;;;;;;52.42;34.42;;;6.20;99.90;;;;;;5054802;28;20221;-83
2022/11/16 06:53:28;;;;;;;69.95;34.90;;;6.10;99.90;;;;;;5048348;28;20213;-85
2022/11/16 06:56:04;;;;;;;62.65;33.38;;;6.00;99.90;;;;;;5042201;28;20200;-82
2022/11/16 06:58:31;;;;;;;76.43;35.50;;;6.20;99.90;;;;;;5040166;28;20224;-83
2022/11/16 07:01:10;;;;;;;66.22;32.35;;;6.20;99.90;;;;;;5038912;28;20268;-83
2022/11/16 07:03:37;;;;;;;60.13;30.83;;;6.20;99.90;;;;;;5053254;28;20200;-82
2022/11/16 07:06:09;;;;;;;65.63;33.75;;;6.30;99.90;;;;;;5054348;28;20209;-84
2022/11/16 07:08:36;;;;;;;58.30;30.02;;;6.20;99.90;;;;;;5039291;28;20574;-85
2022/11/16 07:11:05;;;;;;;61.70;33.53;;;6.30;99.90;;;;;;5053431;28;20224;-84
2022/11/16 07:13:34;;;;;;;74.32;34.80;;;6.30;99.90;;;;;;5053649;28;20269;-85
2022/11/16 07:16:04;;;;;;;63.95;32.13;;;6.20;99.90;;;;;;5038290;28;20197;-85
2022/11/16 07:18:33;;;;;;;67.10;33.03;;;6.20;99.90;;;;;;5037152;28;20209;-87
2022/11/16 07:21:10;;;;;;;67.50;33.30;;;6.20;99.90;;;;;;5054521;28;20273;-84
2022/11/16 07:23:38;;;;;;;61.53;27.77;;;6.20;99.90;;;;;;5037698;28;20196;-86
2022/11/16 07:26:07;;;;;;;68.47;32.17;;;6.20;99.90;;;;;;5053729;28;20259;-84
2022/11/16 07:28:34;;;;;;;68.57;32.38;;;6.30;99.90;;;;;;5054520;28;20259;-83
2022/11/16 07:31:03;;;;;;;68.90;31.45;;;6.30;99.90;;;;;;5038306;28;20380;-84
2022/11/16 07:33:30;;;;;;;56.03;31.83;;;6.40;99.90;;;;;;5037799;28;20587;-86
2022/11/16 07:36:09;;;;;;;68.57;29.75;;;6.40;99.90;;;;;;5046943;28;20271;-89
2022/11/16 07:38:36;;;;;;;54.22;27.25;;;6.50;99.90;;;;;;5049346;28;20204;-84
2022/11/16 07:41:10;;;;;;;60.53;28.20;;;6.50;99.90;;;;;;5038445;28;20344;-83
2022/11/16 07:43:38;;;;;;;62.47;31.80;;;6.40;99.90;;;;;;5042871;28;20247;-86
2022/11/16 07:46:11;;;;;;;64.38;30.10;;;6.40;99.90;;;;;;5034503;28;20197;-86
2022/11/16 07:48:57;;;;;;;66.32;31.75;;;6.20;99.90;;;;;;5049909;28;20251;-84
2022/11/16 07:51:26;;;;;;;75.88;36.90;;;6.20;99.90;;;;;;5044925;28;20216;-83
2022/11/16 07:53:54;;;;;;;66.03;32.70;;;6.30;99.90;;;;;;5038040;28;20194;-85
2022/11/16 07:56:22;;;;;;;63.60;29.85;;;6.30;99.90;;;;;;5042961;28;20250;-83
2022/11/16 07:58:49;;;;;;;71.32;32.35;;;6.50;99.90;;;;;;5033509;28;20205;-82
2022/11/16 08:01:17;;;;;;;64.95;30.27;;;6.50;99.90;;;;;;5039930;28;20377;-84
2022/11/16 08:03:45;;;;;;;57.55;29.77;;;6.60;99.90;;;;;;5037440;28;20393;-81
2022/11/16 08:06:19;;;;;;;59.20;30.85;;;6.50;99.90;;;;;;5037323;28;20197;-80
2022/11/16 08:08:46;;;;;;;67.78;30.85;;;6.40;99.90;;;;;;5052759;28;20228;-83
2022/11/16 08:11:22;;;;;;;80.43;31.65;;;6.40;99.90;;;;;;5044198;28;20210;-83
2022/11/16 08:13:50;;;;;;;74.35;33.30;;;6.30;99.90;;;;;;5034127;28;20205;-84
2022/11/16 08:16:19;;;;;;;73.20;32.92;;;6.30;99.90;;;;;;5042034;28;20213;-84
2022/11/16 08:18:47;;;;;;;68.47;33.58;;;6.40;99.90;;;;;;5040340;28;20201;-82
2022/11/16 08:21:16;;;;;;;98.47;38.08;;;6.40;99.90;;;;;;5044801;28;20400;-85
2022/11/16 08:23:44;;;;;;;74.70;32.83;;;6.70;99.90;;;;;;5041691;28;20511;-85
2022/11/16 08:26:16;;;;;;;78.47;32.88;;;6.60;99.90;;;;;;5053534;28;20235;-84
2022/11/16 08:28:45;;;;;;;71.88;33.85;;;6.60;99.90;;;;;;5068240;28;20228;-84
2022/11/16 08:31:19;;;;;;;64.25;32.22;;;6.70;99.90;;;;;;5058127;28;20392;-85
2022/11/16 08:33:50;;;;;;;80.88;29.85;;;6.60;99.90;;;;;;5046610;28;20189;-84
2022/11/16 08:36:19;;;;;;;79.60;36.65;;;6.70;99.90;;;;;;5055574;28;20189;-86
2022/11/16 08:38:47;;;;;;;77.30;33.85;;;6.80;99.90;;;;;;5054916;28;20599;-86
2022/11/16 08:41:16;;;;;;;80.75;33.17;;;6.70;99.90;;;;;;5054960;28;20192;-88
2022/11/16 08:43:45;;;;;;;75.75;32.42;;;6.70;99.90;;;;;;5054409;28;20540;-84
2022/11/16 08:46:13;;;;;;;75.57;29.58;;;6.80;99.90;;;;;;5048429;28;20201;-81
2022/11/16 08:48:41;;;;;;;91.57;35.95;;;6.80;99.90;;;;;;5043789;28;20267;-83
2022/11/16 08:51:14;;;;;;;83.30;29.50;;;6.80;99.90;;;;;;5044381;28;20212;-84
2022/11/16 08:53:46;;;;;;;73.40;31.95;;;6.70;99.90;;;;;;5044105;28;20196;-85
2022/11/16 08:56:15;;;;;;;75.53;31.42;;;6.70;99.90;;;;;;5057777;28;20523;-85
2022/11/16 08:58:45;;;;;;;74.63;32.40;;;6.70;99.90;;;;;;5044124;28;20216;-82
2022/11/16 09:01:19;;;;;;;66.38;31.75;;;6.70;99.90;;;;;;5058628;28;20277;-82
2022/11/16 09:03:49;;;;;;;71.05;30.02;;;6.70;99.90;;;;;;5040875;28;20204;-84
2022/11/16 09:06:16;;;;;;;68.90;31.60;;;6.80;99.90;;;;;;5046258;28;20205;-83
2022/11/16 09:08:45;;;;;;;69.65;31.38;;;6.80;99.90;;;;;;5045173;28;20232;-82
2022/11/16 09:11:16;;;;;;;65.53;30.83;;;6.80;99.90;;;;;;5045249;28;20205;-82
2022/11/16 09:13:46;;;;;;;62.53;30.10;;;6.70;99.90;;;;;;5044688;28;20193;-83
2022/11/16 09:16:15;;;;;;;70.93;33.10;;;6.70;99.90;;;;;;5059246;28;20209;-82
2022/11/16 09:18:44;;;;;;;86.40;34.20;;;6.70;99.90;;;;;;5060200;28;20205;-84
2022/11/16 09:21:22;;;;;;;84.25;32.88;;;6.70;99.90;;;;;;5048012;28;20205;-82
2022/11/16 09:23:51;;;;;;;66.03;33.00;;;6.70;99.90;;;;;;5043095;28;20200;-86
2022/11/16 09:26:21;;;;;;;69.57;32.58;;;6.80;99.90;;;;;;5053200;28;20233;-84
2022/11/16 09:29:03;;;;;;;68.68;30.35;;;6.90;99.90;;;;;;5041589;28;20240;-84
2022/11/16 09:31:33;;;;;;;75.88;28.52;;;6.80;99.90;;;;;;5043423;28;20209;-84
2022/11/16 09:34:02;;;;;;;72.57;28.85;;;6.70;99.90;;;;;;5043851;28;20216;-84
2022/11/16 09:36:29;;;;;;;81.85;32.80;;;6.70;99.90;;;;;;5042966;28;20196;-86
2022/11/16 09:38:58;;;;;;;71.20;32.72;;;6.60;99.90;;;;;;5053974;28;20202;-82
2022/11/16 09:41:56;;;;;;;64.38;31.65;;;6.60;99.90;;;;;;5035663;28;20243;-85
2022/11/16 09:44:37;;;;;;;72.75;31.42;;;6.70;99.90;;;;;;5043128;28;20238;-85
2022/11/16 09:47:12;;;;;;;54.28;28.92;;;6.70;99.90;;;;;;5042581;28;20327;-83
2022/11/16 09:49:45;;;;;;;72.57;32.38;;;6.60;99.90;;;;;;5043135;28;20235;-85
2022/11/16 09:52:27;;;;;;;65.20;29.05;;;6.70;99.90;;;;;;5058172;28;20197;-83
2022/11/16 09:54:56;;;;;;;65.15;26.27;;;6.50;99.90;;;;;;5043163;28;20260;-82
2022/11/16 09:57:31;;;;;;;53.85;24.25;;;6.40;99.90;;;;;;5042406;28;20247;-85
2022/11/16 10:00:03;;;;;;;64.30;29.42;;;6.40;99.90;;;;;;5048170;28;20259;-85
2022/11/16 10:03:18;;;;;;;56.20;29.08;;;6.40;99.90;;;;;;5041678;28;20287;-85
2022/11/16 10:06:03;;;;;;;63.20;26.55;;;6.50;99.90;;;;;;5024921;28;20216;-86
2022/11/16 10:08:50;;;;;;;60.30;25.88;;;6.40;99.90;;;;;;5020665;28;20233;-84
2022/11/16 10:11:45;;;;;;;61.63;24.20;;;6.30;99.90;;;;;;5037347;28;20204;-83
2022/11/16 10:14:12;;;;;;;65.57;27.33;;;6.40;99.90;;;;;;5044012;28;20222;-84
2022/11/16 10:17:04;;;;;;;64.07;30.52;;;6.50;99.90;;;;;;5046195;28;20312;-85
2022/11/16 10:19:53;;;;;;;57.65;26.08;;;6.40;99.90;;;;;;5044068;28;20208;-87
2022/11/16 10:22:41;;;;;;;55.40;24.60;;;6.40;99.90;;;;;;5050093;28;20201;-81
2022/11/16 10:25:22;;;;;;;62.50;28.38;;;6.40;99.90;;;;;;5060399;28;20272;-85
2022/11/16 10:28:02;;;;;;;47.25;23.35;;;6.40;99.90;;;;;;5045429;28;20196;-82
2022/11/16 10:30:35;;;;;;;44.25;24.30;;;6.40;99.90;;;;;;5044160;28;20227;-83
2022/11/16 10:33:09;;;;;;;69.03;26.88;;;6.30;99.90;;;;;;5043061;28;20445;-85
2022/11/16 10:35:43;;;;;;;48.30;22.58;;;6.20;99.90;;;;;;5044272;28;20220;-82
2022/11/16 10:38:13;;;;;;;65.38;29.73;;;6.10;99.90;;;;;;5040892;28;20247;-83
2022/11/16 10:40:43;;;;;;;57.42;26.05;;;6.10;99.90;;;;;;5058481;28;20204;-84
2022/11/16 10:43:14;;;;;;;57.53;28.05;;;6.20;99.90;;;;;;5041890;28;20447;-82
2022/11/16 10:45:59;;;;;;;46.90;25.70;;;6.40;99.90;;;;;;5041424;28;20201;-82
2022/11/16 10:49:02;;;;;;;48.50;25.08;;;6.30;99.90;;;;;;5056475;28;20220;-84
2022/11/16 10:51:30;;;;;;;43.58;22.77;;;6.40;99.90;;;;;;5041494;28;20215;-84
2022/11/16 10:53:58;;;;;;;44.10;23.20;;;6.50;99.90;;;;;;5040191;28;20216;-86
2022/11/16 10:56:36;;;;;;;45.58;25.83;;;6.30;99.90;;;;;;5055197;28;20208;-84
2022/11/16 10:59:09;;;;;;;53.88;25.13;;;6.30;99.90;;;;;;5050300;28;20212;-84
2022/11/16 11:01:51;;;;;;;55.75;27.15;;;6.30;99.90;;;;;;5042738;28;20189;-84
2022/11/16 11:04:30;;;;;;;49.15;24.33;;;6.30;99.90;;;;;;5044902;28;20262;-87
2022/11/16 11:07:18;;;;;;;50.30;26.23;;;6.40;99.90;;;;;;5049878;28;20196;-86
2022/11/16 11:09:51;;;;;;;46.20;24.48;;;6.40;99.90;;;;;;5040871;28;20233;-83
2022/11/16 11:12:36;;;;;;;50.10;23.45;;;6.40;99.90;;;;;;5052212;28;20251;-88
2022/11/16 11:15:21;;;;;;;46.53;22.00;;;6.30;99.90;;;;;;5034228;28;20200;-84
2022/11/16 11:18:12;;;;;;;46.30;21.65;;;6.30;99.90;;;;;;5054744;28;20196;-81
2022/11/16 11:20:42;;;;;;;44.97;24.38;;;6.30;99.90;;;;;;5047322;28;20209;-85
2022/11/16 11:23:21;;;;;;;38.50;23.45;;;6.30;99.90;;;;;;5049870;28;20284;-85
2022/11/16 11:25:54;;;;;;;38.53;22.98;;;6.30;99.90;;;;;;5030048;28;20238;-82
2022/11/16 11:28:27;;;;;;;42.58;22.58;;;6.40;99.90;;;;;;5042786;28;20255;-84
2022/11/16 11:31:21;;;;;;;42.53;22.30;;;6.50;99.90;;;;;;5055716;28;20205;-84
2022/11/16 11:34:29;;;;;;;51.42;24.85;;;6.50;99.90;;;;;;5030019;28;20197;-87
2022/11/16 11:37:27;;;;;;;43.28;23.98;;;6.40;99.90;;;;;;5046453;28;20201;-85
2022/11/16 11:40:21;;;;;;;57.78;26.30;;;6.40;99.90;;;;;;5042933;28;20201;-84
2022/11/16 11:43:00;;;;;;;44.88;24.15;;;6.60;99.90;;;;;;5024725;28;20470;-82
2022/11/16 11:45:56;;;;;;;47.97;28.25;;;6.40;99.90;;;;;;5037275;28;20203;-85
2022/11/16 11:48:50;;;;;;;48.92;25.55;;;6.40;99.90;;;;;;5057420;28;20209;-86
2022/11/16 11:51:28;;;;;;;49.42;24.75;;;6.40;99.90;;;;;;5031163;28;20205;-85
2022/11/16 11:53:59;;;;;;;58.63;27.20;;;6.50;99.90;;;;;;5042920;28;20205;-83
2022/11/16 11:56:29;;;;;;;62.15;28.45;;;6.40;99.90;;;;;;5043533;28;20228;-87
2022/11/16 11:58:57;;;;;;;65.85;33.22;;;6.20;99.90;;;;;;5044358;28;20266;-82
2022/11/16 12:01:49;;;;;;;62.05;30.48;;;6.20;99.90;;;;;;5059234;28;20197;-86
2022/11/16 12:04:47;;;;;;;68.18;30.73;;;6.20;99.90;;;;;;5043056;28;20196;-85
2022/11/16 12:07:43;;;;;;;57.53;31.80;;;6.20;99.90;;;;;;5046927;28;20274;-82
2022/11/16 12:10:31;;;;;;;59.70;33.22;;;6.30;99.90;;;;;;5043106;28;20279;-85
2022/11/16 12:13:21;;;;;;;59.50;32.90;;;6.20;99.90;;;;;;5041138;28;20571;-85
2022/11/16 12:16:11;;;;;;;68.25;33.03;;;6.10;99.90;;;;;;5043958;28;20205;-82
2022/11/16 12:19:04;;;;;;;62.53;29.27;;;6.10;99.90;;;;;;5042881;28;20689;-87
2022/11/16 12:22:04;;;;;;;51.08;27.40;;;6.20;99.90;;;;;;5046621;28;20292;-84
2022/11/16 12:24:46;;;;;;;46.60;27.27;;;6.10;99.90;;;;;;5042772;28;20204;-82
2022/11/16 12:27:47;;;;;;;48.58;27.77;;;6.20;99.90;;;;;;5041963;28;20212;-85
2022/11/16 12:30:23;;;;;;;43.03;22.02;;;6.30;99.90;;;;;;5054792;28;20449;-86
2022/11/16 12:33:08;;;;;;;43.25;22.80;;;6.30;99.90;;;;;;5064472;28;20213;-84
2022/11/16 12:35:57;;;;;;;49.85;26.15;;;6.30;99.90;;;;;;5032300;28;20253;-86
2022/11/16 12:38:26;;;;;;;44.75;26.13;;;6.20;99.90;;;;;;5051837;28;20193;-86
2022/11/16 12:41:18;;;;;;;43.75;24.38;;;6.20;99.90;;;;;;5030229;28;20428;-84
2022/11/16 12:43:59;;;;;;;41.40;24.83;;;6.30;99.90;;;;;;5044627;28;20189;-86
2022/11/16 12:46:48;;;;;;;39.30;24.10;;;6.40;99.90;;;;;;5053705;28;20197;-87
2022/11/16 12:49:38;;;;;;;35.50;21.90;;;6.20;99.90;;;;;;5052314;28;20212;-83
2022/11/16 12:52:22;;;;;;;47.83;21.55;;;6.10;99.90;;;;;;5043620;28;20209;-88
2022/11/16 12:55:10;;;;;;;37.10;20.83;;;6.10;99.90;;;;;;5045976;28;20317;-89
2022/11/16 12:57:54;;;;;;;38.88;21.73;;;6.10;99.90;;;;;;5040038;28;20224;-85
2022/11/16 13:00:22;;;;;;;38.90;22.98;;;6.00;99.90;;;;;;5043178;28;20213;-84
2022/11/16 13:03:17;;;;;;;42.78;24.13;;;6.20;99.90;;;;;;5026955;28;20204;-84
2022/11/16 13:05:59;;;;;;;42.55;23.60;;;6.10;99.90;;;;;;5043472;28;20205;-87
2022/11/16 13:09:02;;;;;;;46.50;24.27;;;6.10;99.90;;;;;;5044886;28;20200;-87
2022/11/16 13:11:36;;;;;;;48.90;26.55;;;6.00;99.90;;;;;;5041242;28;20367;-88
2022/11/16 13:14:15;;;;;;;38.50;24.58;;;5.90;99.90;;;;;;5041390;28;20624;-85
2022/11/16 13:16:44;;;;;;;47.90;26.55;;;6.00;99.90;;;;;;5041875;28;20206;-89
2022/11/16 13:19:16;;;;;;;40.83;22.65;;;6.00;99.90;;;;;;5036991;28;20351;-88
2022/11/16 13:22:20;;;;;;;42.67;24.08;;;5.90;99.90;;;;;;5049572;28;20202;-89
2022/11/16 13:25:45;;;;;;;49.05;25.58;;;5.90;99.90;;;;;;5047283;28;20221;-89
2022/11/16 13:28:32;;;;;;;47.17;24.20;;;5.80;99.90;;;;;;5039673;28;20248;-89
2022/11/16 13:31:18;;;;;;;47.38;23.27;;;5.80;99.90;;;;;;5231856;22;20229;-88
2022/11/16 13:33:48;;;;;;;43.17;23.75;;;6.10;99.90;;;;;;5062844;28;20227;-88
2022/11/16 13:36:42;;;;;;;48.33;27.92;;;5.90;99.90;;;;;;5056428;28;20266;-85
2022/11/16 13:39:13;;;;;;;54.25;26.33;;;5.80;99.90;;;;;;5059204;28;20196;-89
2022/11/16 13:42:06;;;;;;;38.78;26.02;;;5.80;99.90;;;;;;5061118;28;20243;-90
2022/11/16 13:44:33;;;;;;;44.85;26.73;;;5.80;99.90;;;;;;5052782;28;20203;-89
2022/11/16 13:47:05;;;;;;;47.75;26.70;;;5.80;99.90;;;;;;5051750;28;20223;-88
2022/11/16 13:50:02;;;;;;;44.63;26.40;;;5.90;99.90;;;;;;5053143;28;20224;-84
2022/11/16 13:52:48;;;;;;;54.63;26.65;;;5.80;99.90;;;;;;5040939;28;20200;-90